Time;durP1;ratioP1;P1;durP2;ratioP2;P2;SDS_P1;SDS_P2;PMS_P1;PMS_P2;Temp;Humidity;BMP_temperature;BMP_pressure;BME280_temperature;BME280_humidity;BME280_pressure;Samples;Min_cycle;Max_cycle;Signal;HPM_P1;HPM_P2
2023/05/15 00:00:09;;;;;;;;;;;;;;;15.49;100.00;-18444.44;5033148;28;19925;-85
2023/05/15 00:02:35;;;;;;;;;;;;;;;15.46;100.00;-18443.75;5031967;28;19905;-86
2023/05/15 00:05:00;;;;;;;;;;;;;;;15.43;100.00;-18442.94;5010651;28;19967;-85
2023/05/15 00:07:25;;;;;;;;;;;;;;;15.16;100.00;-18435.69;5013220;28;19924;-86
2023/05/15 00:09:50;;;;;;;;;;;;;;;15.22;100.00;-18437.34;5011975;28;19921;-86
2023/05/15 00:12:16;;;;;;;;;;;;;;;15.22;100.00;-18437.19;4993844;28;20330;-86
2023/05/15 00:14:41;;;;;;;;;;;;;;;15.08;100.00;-18433.63;5002975;28;20677;-86
2023/05/15 00:17:07;;;;;;;;;;;;;;;14.93;100.00;-18429.53;5009284;28;19924;-86
2023/05/15 00:19:32;;;;;;;;;;;;;;;14.82;100.00;-18426.53;5011431;28;19917;-85
2023/05/15 00:21:57;;;;;;;;;;;;;;;14.84;100.00;-18427.06;4990456;28;19922;-86
2023/05/15 00:24:22;;;;;;;;;;;;;;;14.91;100.00;-18429.00;5030973;28;19932;-87
2023/05/15 00:26:48;;;;;;;;;;;;;;;15.02;100.00;-18431.88;5022162;28;20484;-87
2023/05/15 00:29:13;;;;;;;;;;;;;;;15.17;100.00;-18435.97;5014898;28;19963;-86
2023/05/15 00:31:38;;;;;;;;;;;;;;;15.16;100.00;-18435.56;5013756;28;19925;-86
2023/05/15 00:34:03;;;;;;;;;;;;;;;15.27;100.00;-18438.56;4995665;28;19924;-85
2023/05/15 00:36:29;;;;;;;;;;;;;;;15.16;100.00;-18435.56;5006536;28;19924;-86
2023/05/15 00:38:55;;;;;;;;;;;;;;;15.05;100.00;-18432.81;5009563;28;19925;-85
2023/05/15 00:41:21;;;;;;;;;;;;;;;15.14;100.00;-18435.16;5006327;28;19917;-86
2023/05/15 00:43:48;;;;;;;;;;;;;;;15.07;100.00;-18433.22;5005205;28;19921;-85
2023/05/15 00:46:14;;;;;;;;;;;;;;;14.87;100.00;-18427.91;5005085;28;20000;-86
2023/05/15 00:48:40;;;;;;;;;;;;;;;14.82;100.00;-18426.53;5008891;28;20444;-86
2023/05/15 00:51:06;;;;;;;;;;;;;;;14.77;100.00;-18425.16;5010813;28;20019;-85
2023/05/15 00:53:31;;;;;;;;;;;;;;;14.74;100.00;-18424.34;5005421;28;20017;-86
2023/05/15 00:55:58;;;;;;;;;;;;;;;14.60;100.00;-18420.63;4987431;28;19921;-87
2023/05/15 00:58:23;;;;;;;;;;;;;;;14.62;100.00;-18421.31;5007147;28;20736;-85
2023/05/15 01:00:49;;;;;;;;;;;;;;;14.69;100.00;-18423.09;5008588;28;19921;-85
2023/05/15 01:03:15;;;;;;;;;;;;;;;14.28;100.00;-18412.00;5011841;28;19921;-86
2023/05/15 01:05:40;;;;;;;;;;;;;;;14.50;100.00;-18418.03;5006386;28;20269;-85
2023/05/15 01:08:20;;;;;;;;;;;;;;;14.13;100.00;-18408.19;5005719;28;19972;-86
2023/05/15 01:10:46;;;;;;;;;;;;;;;14.30;100.00;-18412.56;5009525;28;19917;-86
2023/05/15 01:13:13;;;;;;;;;;;;;;;14.25;100.00;-18411.19;5014000;28;19925;-85
2023/05/15 01:15:38;;;;;;;;;;;;;;;14.17;100.00;-18409.13;5008963;28;19917;-86
2023/05/15 01:18:04;;;;;;;;;;;;;;;14.28;100.00;-18412.00;5011213;28;19947;-85
2023/05/15 01:20:33;;;;;;;;;;;;;;;14.14;100.00;-18408.44;5014473;28;20011;-86
2023/05/15 01:23:05;;;;;;;;;;;;;;;14.23;100.00;-18410.78;5012416;28;20391;-86
2023/05/15 01:25:57;;;;;;;;;;;;;;;14.34;100.00;-18413.66;5016279;28;19917;-86
2023/05/15 01:28:30;;;;;;;;;;;;;;;14.02;100.00;-18405.03;4989987;28;20499;-87
2023/05/15 01:30:58;;;;;;;;;;;;;;;14.00;100.00;-18404.75;4993359;28;19963;-86
2023/05/15 01:33:26;;;;;;;;;;;;;;;13.99;100.00;-18404.34;4996718;28;21959;-86
2023/05/15 01:35:54;;;;;;;;;;;;;;;13.91;100.00;-18402.28;5011957;28;20368;-85
2023/05/15 01:38:26;;;;;;;;;;;;;;;13.75;100.00;-18398.03;5018433;28;19917;-87
2023/05/15 01:41:00;;;;;;;;;;;;;;;13.90;100.00;-18401.88;5016089;28;19932;-87
2023/05/15 01:43:28;;;;;;;;;;;;;;;13.91;100.00;-18402.28;5017504;28;19932;-87
2023/05/15 01:45:54;;;;;;;;;;;;;;;14.10;100.00;-18407.22;5016906;28;19917;-86
2023/05/15 01:48:20;;;;;;;;;;;;;;;13.71;100.00;-18396.94;5014098;28;19924;-86
2023/05/15 01:50:46;;;;;;;;;;;;;;;13.79;100.00;-18399.00;5018130;28;20216;-86
2023/05/15 01:53:11;;;;;;;;;;;;;;;13.96;100.00;-18403.66;4999790;28;19964;-86
2023/05/15 01:55:37;;;;;;;;;;;;;;;14.08;100.00;-18406.81;4987486;28;20406;-86
2023/05/15 01:58:03;;;;;;;;;;;;;;;13.89;100.00;-18401.59;4998587;28;19932;-85
2023/05/15 02:00:29;;;;;;;;;;;;;;;13.91;100.00;-18402.28;5010113;28;19918;-85
2023/05/15 02:02:55;;;;;;;;;;;;;;;14.02;100.00;-18405.16;5012935;28;20300;-86
2023/05/15 02:05:20;;;;;;;;;;;;;;;13.88;100.00;-18401.47;5016579;28;19921;-86
2023/05/15 02:07:47;;;;;;;;;;;;;;;13.54;100.00;-18392.41;5010973;28;19925;-87
2023/05/15 02:10:13;;;;;;;;;;;;;;;13.15;100.00;-18381.88;5012069;28;19918;-85
2023/05/15 02:12:39;;;;;;;;;;;;;;;13.19;100.00;-18382.97;5012455;28;19928;-86
2023/05/15 02:15:06;;;;;;;;;;;;;;;13.37;100.00;-18387.63;5010195;28;19999;-86
2023/05/15 02:17:31;;;;;;;;;;;;;;;13.15;100.00;-18381.88;5006147;28;19917;-86
2023/05/15 02:19:56;;;;;;;;;;;;;;;13.18;100.00;-18382.69;5015386;28;20008;-87
2023/05/15 02:22:22;;;;;;;;;;;;;;;13.11;100.00;-18380.78;5013753;28;19917;-86
2023/05/15 02:24:47;;;;;;;;;;;;;;;12.87;100.00;-18374.47;5012211;28;20362;-86
2023/05/15 02:27:16;;;;;;;;;;;;;;;13.06;100.00;-18379.41;5015064;28;19917;-86
2023/05/15 02:29:44;;;;;;;;;;;;;;;13.25;100.00;-18384.63;4985279;28;19991;-86
2023/05/15 02:32:09;;;;;;;;;;;;;;;13.21;100.00;-18383.50;5015335;28;20303;-86
2023/05/15 02:34:44;;;;;;;;;;;;;;;13.24;100.00;-18384.34;5016909;28;19925;-85
2023/05/15 02:37:12;;;;;;;;;;;;;;;13.13;100.00;-18381.19;5015346;28;20016;-86
2023/05/15 02:39:39;;;;;;;;;;;;;;;13.12;100.00;-18381.03;5016646;28;19917;-86
2023/05/15 02:42:05;;;;;;;;;;;;;;;13.15;100.00;-18381.88;5013340;28;19921;-86
2023/05/15 02:44:31;;;;;;;;;;;;;;;12.80;100.00;-18372.41;5001363;28;20011;-86
2023/05/15 02:46:57;;;;;;;;;;;;;;;12.58;100.00;-18366.66;5012076;28;20371;-86
2023/05/15 02:49:22;;;;;;;;;;;;;;;12.50;100.00;-18364.44;5009090;28;19948;-85
2023/05/15 02:51:47;;;;;;;;;;;;;;;12.79;100.00;-18372.28;5014554;28;19921;-86
2023/05/15 02:54:13;;;;;;;;;;;;;;;12.70;100.00;-18369.81;5017470;28;23779;-86
2023/05/15 02:56:39;;;;;;;;;;;;;;;12.64;100.00;-18368.28;5015627;28;20012;-86
2023/05/15 02:59:04;;;;;;;;;;;;;;;12.77;100.00;-18371.72;5012245;28;20419;-87
2023/05/15 03:01:29;;;;;;;;;;;;;;;12.64;100.00;-18368.28;5032279;28;19917;-86
2023/05/15 03:03:55;;;;;;;;;;;;;;;12.80;100.00;-18372.41;5015132;28;19925;-86
2023/05/15 03:06:21;;;;;;;;;;;;;;;12.61;100.00;-18367.47;5008671;28;19924;-87
2023/05/15 03:08:46;;;;;;;;;;;;;;;12.18;100.00;-18355.81;5016104;28;20036;-86
2023/05/15 03:11:11;;;;;;;;;;;;;;;12.22;100.00;-18356.91;5013641;28;19917;-86
2023/05/15 03:13:36;;;;;;;;;;;;;;;12.26;100.00;-18358.00;5016123;28;19917;-86
2023/05/15 03:16:01;;;;;;;;;;;;;;;12.30;100.00;-18358.97;5012037;28;20375;-85
2023/05/15 03:18:27;;;;;;;;;;;;;;;12.36;100.00;-18360.63;5016141;28;20324;-87
2023/05/15 03:20:52;;;;;;;;;;;;;;;12.42;100.00;-18362.25;5013749;28;19925;-86
2023/05/15 03:23:17;;;;;;;;;;;;;;;12.52;100.00;-18364.88;5014942;28;19921;-87
2023/05/15 03:25:42;;;;;;;;;;;;;;;12.46;100.00;-18363.34;5014833;28;19933;-87
2023/05/15 03:28:08;;;;;;;;;;;;;;;12.61;100.00;-18367.34;4998268;28;20161;-87
2023/05/15 03:30:33;;;;;;;;;;;;;;;12.61;100.00;-18367.34;5019278;28;19924;-87
2023/05/15 03:32:58;;;;;;;;;;;;;;;12.48;100.00;-18363.91;5013930;28;19925;-86
2023/05/15 03:35:25;;;;;;;;;;;;;;;12.46;100.00;-18363.34;4993499;28;19940;-87
2023/05/15 03:37:50;;;;;;;;;;;;;;;12.43;100.00;-18362.53;5015961;28;20407;-87
2023/05/15 03:40:15;;;;;;;;;;;;;;;12.42;100.00;-18362.41;4994582;28;19917;-87
2023/05/15 03:42:40;;;;;;;;;;;;;;;12.21;100.00;-18356.50;5009476;28;19921;-86
2023/05/15 03:45:06;;;;;;;;;;;;;;;12.31;100.00;-18359.38;5012359;28;20020;-87
2023/05/15 03:47:31;;;;;;;;;;;;;;;12.42;100.00;-18362.25;5011606;28;19956;-87
2023/05/15 03:49:57;;;;;;;;;;;;;;;12.48;100.00;-18363.91;5016336;28;20431;-86
2023/05/15 03:52:22;;;;;;;;;;;;;;;12.50;100.00;-18364.31;5020527;28;20410;-86
2023/05/15 03:54:47;;;;;;;;;;;;;;;12.31;100.00;-18359.38;5011148;28;20475;-87
2023/05/15 03:57:12;;;;;;;;;;;;;;;12.40;100.00;-18361.84;5012559;28;20013;-87
2023/05/15 03:59:38;;;;;;;;;;;;;;;12.56;100.00;-18366.09;5009404;28;20497;-86
2023/05/15 04:02:03;;;;;;;;;;;;;;;12.35;100.00;-18360.34;5009527;28;19949;-86
2023/05/15 04:04:28;;;;;;;;;;;;;;;12.44;100.00;-18362.81;4991247;28;19928;-86
2023/05/15 04:06:53;;;;;;;;;;;;;;;12.39;100.00;-18361.56;5013356;28;19932;-86
2023/05/15 04:09:19;;;;;;;;;;;;;;;12.31;100.00;-18359.38;5012996;28;19917;-86
2023/05/15 04:11:45;;;;;;;;;;;;;;;12.40;100.00;-18361.84;5011924;28;19925;-87
2023/05/15 04:14:10;;;;;;;;;;;;;;;12.42;100.00;-18362.41;5003695;28;19917;-87
2023/05/15 04:16:36;;;;;;;;;;;;;;;12.45;100.00;-18362.94;5012948;28;19920;-87
2023/05/15 04:19:01;;;;;;;;;;;;;;;12.55;100.00;-18365.69;5010089;28;19945;-86
2023/05/15 04:21:26;;;;;;;;;;;;;;;12.44;100.00;-18362.66;5009785;28;20449;-86
2023/05/15 04:23:51;;;;;;;;;;;;;;;12.50;100.00;-18364.44;5008644;28;20400;-87
2023/05/15 04:26:17;;;;;;;;;;;;;;;12.61;100.00;-18367.47;5005338;28;20406;-86
2023/05/15 04:28:42;;;;;;;;;;;;;;;12.93;100.00;-18375.84;4979008;28;19948;-86
2023/05/15 04:31:07;;;;;;;;;;;;;;;12.78;100.00;-18371.88;5031064;28;19901;-86
2023/05/15 04:33:33;;;;;;;;;;;;;;;12.63;100.00;-18367.88;5025960;28;19924;-86
2023/05/15 04:35:58;;;;;;;;;;;;;;;12.67;100.00;-18368.84;5012164;28;20182;-87
2023/05/15 04:38:23;;;;;;;;;;;;;;;12.64;100.00;-18368.28;5013909;28;19962;-86
2023/05/15 04:40:48;;;;;;;;;;;;;;;12.76;100.00;-18371.31;5030836;22;20291;-81
2023/05/15 04:43:14;;;;;;;;;;;;;;;12.67;100.00;-18368.84;5019012;28;20284;-80
2023/05/15 04:45:39;;;;;;;;;;;;;;;12.38;100.00;-18361.31;5021785;28;20058;-79
2023/05/15 04:48:05;;;;;;;;;;;;;;;12.62;100.00;-18367.75;5015870;28;19917;-79
2023/05/15 04:50:30;;;;;;;;;;;;;;;12.88;100.00;-18374.75;5017727;28;19921;-78
2023/05/15 04:52:56;;;;;;;;;;;;;;;12.49;100.00;-18364.03;5011988;28;20417;-76
2023/05/15 04:55:21;;;;;;;;;;;;;;;12.58;100.00;-18366.50;5015599;28;19928;-76
2023/05/15 04:57:46;;;;;;;;;;;;;;;12.56;100.00;-18366.09;5016489;28;20192;-77
2023/05/15 05:00:13;;;;;;;;;;;;;;;12.73;100.00;-18370.63;5016439;28;19921;-78
2023/05/15 05:02:38;;;;;;;;;;;;;;;12.85;100.00;-18373.91;5001649;28;20304;-77
2023/05/15 05:05:04;;;;;;;;;;;;;;;12.81;100.00;-18372.69;5021372;28;19926;-79
2023/05/15 05:07:30;;;;;;;;;;;;;;;12.55;100.00;-18365.69;5016571;28;20327;-76
2023/05/15 05:09:55;;;;;;;;;;;;;;;12.66;100.00;-18368.72;5017685;28;19921;-78
2023/05/15 05:12:20;;;;;;;;;;;;;;;12.71;100.00;-18370.06;5019862;28;20412;-77
2023/05/15 05:14:45;;;;;;;;;;;;;;;12.49;100.00;-18364.19;5020006;28;19924;-78
2023/05/15 05:17:11;;;;;;;;;;;;;;;12.52;100.00;-18364.88;5023334;28;19921;-77
2023/05/15 05:19:36;;;;;;;;;;;;;;;12.64;100.00;-18368.16;5019135;28;20497;-78
2023/05/15 05:22:04;;;;;;;;;;;;;;;12.55;100.00;-18365.69;5018964;28;20415;-77
2023/05/15 05:24:29;;;;;;;;;;;;;;;12.70;100.00;-18369.66;5023960;28;19921;-77
2023/05/15 05:26:57;;;;;;;;;;;;;;;12.64;100.00;-18368.16;5019007;28;19931;-77
2023/05/15 05:29:22;;;;;;;;;;;;;;;12.78;100.00;-18372.00;5015873;28;20000;-78
2023/05/15 05:31:47;;;;;;;;;;;;;;;12.74;100.00;-18370.91;5013360;28;20015;-77
2023/05/15 05:34:13;;;;;;;;;;;;;;;12.61;100.00;-18367.34;5018951;28;21354;-77
2023/05/15 05:36:38;;;;;;;;;;;;;;;12.58;100.00;-18366.50;5020982;28;19960;-76
2023/05/15 05:39:03;;;;;;;;;;;;;;;12.69;100.00;-18369.53;5023247;28;19917;-77
2023/05/15 05:41:29;;;;;;;;;;;;;;;12.76;100.00;-18371.44;5017164;28;19924;-77
2023/05/15 05:43:54;;;;;;;;;;;;;;;12.89;100.00;-18374.88;5007340;28;20028;-77
2023/05/15 05:46:19;;;;;;;;;;;;;;;12.92;100.00;-18375.69;5017259;28;19929;-77
2023/05/15 05:48:45;;;;;;;;;;;;;;;12.90;100.00;-18375.00;4998948;28;20011;-79
2023/05/15 05:51:10;;;;;;;;;;;;;;;12.99;100.00;-18377.47;5002669;28;19917;-77
2023/05/15 05:53:35;;;;;;;;;;;;;;;13.08;100.00;-18379.94;5017540;28;20301;-76
2023/05/15 05:56:01;;;;;;;;;;;;;;;12.85;100.00;-18373.91;5018799;28;19924;-78
2023/05/15 05:58:26;;;;;;;;;;;;;;;12.76;100.00;-18371.31;5012657;28;19924;-76
2023/05/15 06:00:51;;;;;;;;;;;;;;;12.88;100.00;-18374.59;5014694;28;19943;-77
2023/05/15 06:03:17;;;;;;;;;;;;;;;12.80;100.00;-18372.41;5014700;28;20292;-77
2023/05/15 06:05:42;;;;;;;;;;;;;;;12.94;100.00;-18376.09;5019584;28;19959;-77
2023/05/15 06:08:08;;;;;;;;;;;;;;;12.95;100.00;-18376.38;5017339;28;20019;-78
2023/05/15 06:10:33;;;;;;;;;;;;;;;13.07;100.00;-18379.69;5017824;28;20004;-75
2023/05/15 06:12:58;;;;;;;;;;;;;;;12.83;100.00;-18373.38;5022490;28;19921;-79
2023/05/15 06:15:25;;;;;;;;;;;;;;;12.88;100.00;-18374.75;5018932;28;19921;-79
2023/05/15 06:17:50;;;;;;;;;;;;;;;12.72;100.00;-18370.34;4996696;28;19952;-80
2023/05/15 06:20:15;;;;;;;;;;;;;;;12.70;100.00;-18369.66;5013683;28;20492;-79
2023/05/15 06:22:40;;;;;;;;;;;;;;;12.63;100.00;-18367.88;5020542;28;19916;-78
2023/05/15 06:25:06;;;;;;;;;;;;;;;12.67;100.00;-18368.84;5018498;28;20012;-76
2023/05/15 06:27:31;;;;;;;;;;;;;;;12.86;100.00;-18374.19;5014079;28;20013;-79
2023/05/15 06:29:56;;;;;;;;;;;;;;;12.68;100.00;-18369.25;5014318;28;19917;-80
2023/05/15 06:32:22;;;;;;;;;;;;;;;12.56;100.00;-18365.97;4998379;28;19924;-78
2023/05/15 06:34:47;;;;;;;;;;;;;;;12.61;100.00;-18367.34;5019667;28;20529;-78
2023/05/15 06:37:12;;;;;;;;;;;;;;;12.50;100.00;-18364.44;5014014;28;19980;-78
2023/05/15 06:39:37;;;;;;;;;;;;;;;12.49;100.00;-18364.19;5012472;28;19974;-78
2023/05/15 06:42:03;;;;;;;;;;;;;;;12.35;100.00;-18360.47;5024767;28;19924;-79
2023/05/15 06:44:29;;;;;;;;;;;;;;;12.40;100.00;-18361.84;5017615;28;19921;-78
2023/05/15 06:46:54;;;;;;;;;;;;;;;12.74;100.00;-18370.91;5022412;28;20008;-78
2023/05/15 06:49:20;;;;;;;;;;;;;;;12.77;100.00;-18371.72;5006824;28;20007;-79
2023/05/15 06:51:45;;;;;;;;;;;;;;;12.40;100.00;-18361.84;5020567;28;19959;-78
2023/05/15 06:54:10;;;;;;;;;;;;;;;12.09;100.00;-18353.34;5015075;28;19924;-79
2023/05/15 06:56:36;;;;;;;;;;;;;;;12.17;100.00;-18355.69;5015942;28;19917;-75
2023/05/15 06:59:01;;;;;;;;;;;;;;;12.29;100.00;-18358.84;5019023;28;19924;-78
2023/05/15 07:01:26;;;;;;;;;;;;;;;12.33;100.00;-18359.94;5013785;28;19924;-78
2023/05/15 07:03:51;;;;;;;;;;;;;;;12.48;100.00;-18363.75;5013957;28;19928;-78
2023/05/15 07:06:17;;;;;;;;;;;;;;;12.14;100.00;-18354.84;5013477;28;19924;-78
2023/05/15 07:08:42;;;;;;;;;;;;;;;12.12;100.00;-18354.31;5018090;28;19924;-76
2023/05/15 07:11:07;;;;;;;;;;;;;;;12.16;100.00;-18355.41;5003126;28;19928;-79
2023/05/15 07:13:33;;;;;;;;;;;;;;;12.13;100.00;-18354.44;5016714;28;19917;-76
2023/05/15 07:15:58;;;;;;;;;;;;;;;12.41;100.00;-18362.13;5016165;28;20024;-78
2023/05/15 07:18:24;;;;;;;;;;;;;;;12.48;100.00;-18363.91;5006470;28;20007;-77
2023/05/15 07:20:49;;;;;;;;;;;;;;;12.70;100.00;-18369.81;5018468;28;19971;-77
2023/05/15 07:23:14;;;;;;;;;;;;;;;12.81;100.00;-18372.69;5017098;28;19917;-78
2023/05/15 07:25:40;;;;;;;;;;;;;;;12.84;100.00;-18373.50;5017732;28;19921;-77
2023/05/15 07:28:05;;;;;;;;;;;;;;;13.12;100.00;-18380.91;5016026;28;20308;-77
2023/05/15 07:30:30;;;;;;;;;;;;;;;13.10;100.00;-18380.50;5004031;28;19917;-77
2023/05/15 07:32:55;;;;;;;;;;;;;;;13.10;100.00;-18380.50;5013571;28;20348;-78
2023/05/15 07:35:21;;;;;;;;;;;;;;;13.42;100.00;-18389.00;5012876;28;19924;-78
2023/05/15 07:37:46;;;;;;;;;;;;;;;13.56;100.00;-18392.84;5022913;28;19921;-78
2023/05/15 07:40:11;;;;;;;;;;;;;;;13.49;100.00;-18390.91;5021817;28;20003;-78
2023/05/15 07:42:38;;;;;;;;;;;;;;;13.49;100.00;-18391.06;5015733;28;19995;-77
2023/05/15 07:45:04;;;;;;;;;;;;;;;13.83;100.00;-18399.97;5016790;28;20491;-78
2023/05/15 07:47:30;;;;;;;;;;;;;;;13.87;100.00;-18401.06;5006761;28;19924;-77
2023/05/15 07:49:55;;;;;;;;;;;;;;;13.97;100.00;-18403.78;5017257;28;19917;-76
2023/05/15 07:52:20;;;;;;;;;;;;;;;14.08;100.00;-18406.81;5017751;28;19917;-78
2023/05/15 07:54:45;;;;;;;;;;;;;;;14.18;100.00;-18409.56;5011716;28;19952;-76
2023/05/15 07:57:11;;;;;;;;;;;;;;;14.29;100.00;-18412.28;5014774;28;20595;-76
2023/05/15 07:59:37;;;;;;;;;;;;;;;14.43;100.00;-18416.25;5014939;28;20035;-78
2023/05/15 08:02:02;;;;;;;;;;;;;;;14.64;100.00;-18421.72;5018514;28;20020;-77
2023/05/15 08:04:27;;;;;;;;;;;;;;;14.70;100.00;-18423.38;5016380;28;20024;-79
2023/05/15 08:06:52;;;;;;;;;;;;;;;14.67;100.00;-18422.56;5014726;28;20277;-78
2023/05/15 08:09:18;;;;;;;;;;;;;;;14.71;100.00;-18423.50;5019356;28;19925;-78
2023/05/15 08:11:43;;;;;;;;;;;;;;;14.83;100.00;-18426.81;5017594;28;19917;-79
2023/05/15 08:14:08;;;;;;;;;;;;;;;14.89;100.00;-18428.44;5019139;28;19917;-78
2023/05/15 08:16:34;;;;;;;;;;;;;;;15.10;100.00;-18434.19;5020000;28;20384;-78
2023/05/15 08:19:03;;;;;;;;;;;;;;;15.33;100.00;-18440.22;5018641;28;20144;-79
2023/05/15 08:21:28;;;;;;;;;;;;;;;15.46;100.00;-18443.75;5004949;28;19917;-77
2023/05/15 08:23:54;;;;;;;;;;;;;;;15.75;100.00;-18451.56;5014930;28;19959;-78
2023/05/15 08:26:19;;;;;;;;;;;;;;;15.80;100.00;-18452.78;5016757;28;19921;-78
2023/05/15 08:28:45;;;;;;;;;;;;;;;15.77;100.00;-18451.97;5016979;28;19921;-79
2023/05/15 08:31:10;;;;;;;;;;;;;;;15.83;100.00;-18453.47;5017115;28;19917;-78
2023/05/15 08:33:35;;;;;;;;;;;;;;;15.89;100.00;-18455.25;5019269;28;19928;-77
2023/05/15 08:36:00;;;;;;;;;;;;;;;15.91;100.00;-18455.66;5006123;28;19917;-78
2023/05/15 08:38:25;;;;;;;;;;;;;;;16.23;100.00;-18464.28;5007581;28;19932;-76
2023/05/15 08:40:53;;;;;;;;;;;;;;;16.37;100.00;-18468.09;5029757;28;19921;-77
2023/05/15 08:43:20;;;;;;;;;;;;;;;16.35;100.00;-18467.41;5025476;28;20395;-80
2023/05/15 08:45:45;;;;;;;;;;;;;;;16.33;100.00;-18467.00;5025560;28;20595;-77
2023/05/15 08:48:15;;;;;;;;;;;;;;;16.28;100.00;-18465.63;5007487;28;19916;-78
2023/05/15 08:50:42;;;;;;;;;;;;;;;16.61;100.00;-18474.38;5012432;28;19928;-78
2023/05/15 08:53:08;;;;;;;;;;;;;;;16.52;100.00;-18472.06;5024896;28;19928;-78
2023/05/15 08:55:33;;;;;;;;;;;;;;;16.70;100.00;-18476.84;5025689;28;19929;-79
2023/05/15 08:57:59;;;;;;;;;;;;;;;16.97;100.00;-18484.09;5025101;28;19924;-78
2023/05/15 09:00:25;;;;;;;;;;;;;;;16.86;100.00;-18481.22;5012121;28;20371;-78
2023/05/15 09:02:52;;;;;;;;;;;;;;;16.65;100.00;-18475.47;5029503;28;20475;-78
2023/05/15 09:05:17;;;;;;;;;;;;;;;16.63;100.00;-18474.94;5022380;28;20618;-79
2023/05/15 09:07:44;;;;;;;;;;;;;;;16.85;100.00;-18480.94;5022334;28;19917;-78
2023/05/15 09:10:10;;;;;;;;;;;;;;;16.87;100.00;-18481.34;5023181;28;19952;-78
2023/05/15 09:12:39;;;;;;;;;;;;;;;16.99;100.00;-18484.50;5027412;28;20426;-79
2023/05/15 09:15:12;;;;;;;;;;;;;;;17.16;100.00;-18489.00;5023291;28;19917;-79
2023/05/15 09:17:38;;;;;;;;;;;;;;;17.28;100.00;-18492.28;5027330;28;19925;-80
2023/05/15 09:20:07;;;;;;;;;;;;;;;17.39;100.00;-18495.16;5024170;28;19921;-77
2023/05/15 09:22:33;;;;;;;;;;;;;;;17.43;100.00;-18496.38;5024645;28;19917;-80
2023/05/15 09:24:58;;;;;;;;;;;;;;;17.44;100.00;-18496.66;5028479;28;19970;-80
2023/05/15 09:27:25;;;;;;;;;;;;;;;17.67;100.00;-18502.66;5019795;28;20412;-79
2023/05/15 09:29:53;;;;;;;;;;;;;;;17.58;100.00;-18500.34;5022748;28;20300;-79
2023/05/15 09:32:18;;;;;;;;;;;;;;;17.70;100.00;-18503.63;5019252;28;19921;-79
2023/05/15 09:34:44;;;;;;;;;;;;;;;17.68;100.00;-18502.94;5010261;28;19963;-78
2023/05/15 09:37:11;;;;;;;;;;;;;;;17.81;100.00;-18506.47;5024528;28;19963;-79
2023/05/15 09:39:41;;;;;;;;;;;;;;;17.77;100.00;-18505.53;5023571;28;19964;-80
2023/05/15 09:42:08;;;;;;;;;;;;;;;17.84;100.00;-18507.16;5027712;28;20311;-78
2023/05/15 09:44:33;;;;;;;;;;;;;;;17.87;100.00;-18508.13;5023843;28;19943;-80
2023/05/15 09:46:58;;;;;;;;;;;;;;;17.99;100.00;-18511.25;5008895;28;20384;-77
2023/05/15 09:49:24;;;;;;;;;;;;;;;17.93;100.00;-18509.75;5022408;28;19961;-79
2023/05/15 09:51:49;;;;;;;;;;;;;;;18.13;100.00;-18514.94;5005997;28;20047;-80
2023/05/15 09:54:17;;;;;;;;;;;;;;;18.31;100.00;-18519.72;5021331;28;19952;-77
2023/05/15 09:56:43;;;;;;;;;;;;;;;18.52;100.00;-18525.44;5019340;28;20035;-78
2023/05/15 09:59:11;;;;;;;;;;;;;;;18.72;100.00;-18530.88;5004869;28;20347;-78
2023/05/15 10:01:36;;;;;;;;;;;;;;;18.56;100.00;-18526.53;5025478;28;19921;-79
2023/05/15 10:04:04;;;;;;;;;;;;;;;18.75;100.00;-18531.56;5006691;28;20390;-82
2023/05/15 10:06:42;;;;;;;;;;;;;;;18.65;100.00;-18528.97;5021951;28;19955;-78
2023/05/15 10:09:08;;;;;;;;;;;;;;;18.91;100.00;-18535.81;5025773;28;20299;-78
2023/05/15 10:11:34;;;;;;;;;;;;;;;18.92;100.00;-18536.06;5019689;28;20004;-79
2023/05/15 10:13:59;;;;;;;;;;;;;;;18.98;100.00;-18537.72;5024330;28;19962;-83
2023/05/15 10:16:27;;;;;;;;;;;;;;;18.78;99.06;-18532.25;5025769;28;19913;-79
2023/05/15 10:18:52;;;;;;;;;;;;;;;18.90;100.00;-18535.53;5016448;28;19921;-81
2023/05/15 10:21:19;;;;;;;;;;;;;;;19.02;94.35;-18538.81;5022869;28;19913;-81
2023/05/15 10:23:45;;;;;;;;;;;;;;;19.16;96.39;-18542.63;5016600;28;19924;-79
2023/05/15 10:26:14;;;;;;;;;;;;;;;19.22;90.09;-18544.13;5021986;28;20376;-80
2023/05/15 10:28:40;;;;;;;;;;;;;;;19.27;93.57;-18545.34;5026839;28;19920;-83
2023/05/15 10:31:05;;;;;;;;;;;;;;;19.14;96.22;-18542.06;5025317;28;19917;-82
2023/05/15 10:33:31;;;;;;;;;;;;;;;19.25;100.00;-18544.94;5023284;28;20269;-80
2023/05/15 10:35:57;;;;;;;;;;;;;;;19.30;96.89;-18546.16;5031892;28;20319;-79
2023/05/15 10:38:22;;;;;;;;;;;;;;;19.43;100.00;-18549.69;5026886;28;19971;-79
2023/05/15 10:40:48;;;;;;;;;;;;;;;19.46;92.28;-18550.53;5029419;28;19917;-80
2023/05/15 10:43:13;;;;;;;;;;;;;;;19.52;96.29;-18552.16;5027729;28;19913;-80
2023/05/15 10:45:39;;;;;;;;;;;;;;;19.53;95.33;-18552.44;5028546;28;20453;-79
2023/05/15 10:48:07;;;;;;;;;;;;;;;19.67;92.91;-18556.09;5041944;28;19913;-80
2023/05/15 10:50:32;;;;;;;;;;;;;;;19.68;87.59;-18556.38;5041029;28;20395;-79
2023/05/15 10:52:58;;;;;;;;;;;;;;;19.63;80.48;-18554.88;5030862;28;19917;-79
2023/05/15 10:55:24;;;;;;;;;;;;;;;19.56;74.21;-18553.25;5010701;28;20313;-79
2023/05/15 10:57:49;;;;;;;;;;;;;;;19.65;87.46;-18555.41;5024444;28;19953;-79
2023/05/15 11:00:17;;;;;;;;;;;;;;;19.84;85.70;-18560.59;5028241;28;20330;-79
2023/05/15 11:02:43;;;;;;;;;;;;;;;19.85;89.21;-18560.88;5026145;28;19928;-79
2023/05/15 11:05:10;;;;;;;;;;;;;;;20.00;86.38;-18564.97;5010457;28;20006;-79
2023/05/15 11:07:36;;;;;;;;;;;;;;;20.02;86.99;-18565.50;5028403;28;20558;-79
2023/05/15 11:10:21;;;;;;;;;;;;;;;20.10;89.11;-18567.41;5029001;28;19954;-79
2023/05/15 11:13:00;;;;;;;;;;;;;;;20.32;85.34;-18573.41;5028346;28;19920;-79
2023/05/15 11:15:25;;;;;;;;;;;;;;;20.42;84.01;-18576.13;5027345;28;19939;-79
2023/05/15 11:18:06;;;;;;;;;;;;;;;20.41;81.48;-18575.72;5037290;28;19912;-79
2023/05/15 11:20:32;;;;;;;;;;;;;;;20.24;71.07;-18571.34;5009309;28;19921;-79
2023/05/15 11:22:58;;;;;;;;;;;;;;;20.50;66.75;-18578.28;5013989;28;19913;-79
2023/05/15 11:25:28;;;;;;;;;;;;;;;20.86;61.33;-18587.81;5023746;28;19921;-79
2023/05/15 11:27:53;;;;;;;;;;;;;;;20.68;61.21;-18583.06;5028719;28;19913;-79
2023/05/15 11:30:23;;;;;;;;;;;;;;;20.88;63.01;-18588.38;5006933;28;19924;-79
2023/05/15 11:32:57;;;;;;;;;;;;;;;20.88;62.99;-18588.38;5029549;28;19917;-79
2023/05/15 11:35:22;;;;;;;;;;;;;;;20.83;61.94;-18587.00;5028659;28;20405;-79
2023/05/15 11:37:49;;;;;;;;;;;;;;;20.68;63.10;-18583.06;5030579;28;19966;-79
2023/05/15 11:40:25;;;;;;;;;;;;;;;21.04;68.78;-18592.44;5031211;28;19963;-79
2023/05/15 11:42:59;;;;;;;;;;;;;;;21.03;69.14;-18592.19;5030642;28;20012;-79
2023/05/15 11:45:25;;;;;;;;;;;;;;;21.00;74.74;-18591.50;5017597;28;19925;-79
2023/05/15 11:47:50;;;;;;;;;;;;;;;21.10;74.79;-18594.09;5038994;28;19921;-79
2023/05/15 11:50:16;;;;;;;;;;;;;;;21.12;76.70;-18594.75;5028356;28;19920;-79
2023/05/15 11:52:41;;;;;;;;;;;;;;;21.15;63.98;-18595.56;5029678;28;19917;-79
2023/05/15 11:55:07;;;;;;;;;;;;;;;21.07;63.42;-18593.25;5029076;28;19963;-79
2023/05/15 11:57:32;;;;;;;;;;;;;;;21.23;62.91;-18597.63;5023684;28;20007;-79
2023/05/15 11:59:57;;;;;;;;;;;;;;;21.21;71.55;-18596.94;5029694;28;20331;-79
2023/05/15 12:02:23;;;;;;;;;;;;;;;21.22;66.56;-18597.22;5027927;28;19987;-79
2023/05/15 12:04:49;;;;;;;;;;;;;;;21.00;70.34;-18591.34;5029899;28;19924;-79
2023/05/15 12:07:15;;;;;;;;;;;;;;;21.22;73.27;-18597.22;5028276;28;19917;-79
2023/05/15 12:09:41;;;;;;;;;;;;;;;21.44;58.00;-18603.19;5028396;28;19913;-79
2023/05/15 12:12:11;;;;;;;;;;;;;;;21.40;66.92;-18602.09;5024788;28;20676;-79
2023/05/15 12:14:38;;;;;;;;;;;;;;;21.33;79.01;-18600.34;5029277;28;20428;-79
2023/05/15 12:17:03;;;;;;;;;;;;;;;21.53;72.72;-18605.50;5022925;28;20358;-79
2023/05/15 12:19:33;;;;;;;;;;;;;;;21.46;76.05;-18603.59;5027039;28;19920;-79
2023/05/15 12:21:58;;;;;;;;;;;;;;;21.66;81.95;-18609.03;5027811;28;19917;-79